Hudson Bend, Texas
Current Conditions -  °F | °C
As of 7:15 AM on Thursday 23 Oct 2014 (Local Time) from KRYW Reporting Station
Light Rain Light Rain  
Wind Chill: 67°   Ceiling: 12000
Heat Index: 67°   Visibility: 10mi
Dew Point: 61°   Wind: 0mph
Humidity: 82%   Direction: NA
Pressure: 30.14"   Gusts: NA
Location:  30.3763°N, 97.9464°W
Report Text: KRYW 231215Z AUTO 00000KT 10SM -RA SCT037 SCT049 BKN120 19/16 A3014 RMK AO2 T01920161
Loading
Personal Weather Stations






























Interactive Weather Map
Tropical Storm Tracking
New forecast layout! Learn more

10-Day Weather Forecast

Advertisements
Track Severe Weather on mobile